sensor_id;sensor_type;location;lat;lon;timestamp;temperature;humidity
698;DHT22;331;48.414;9.938;2023-03-01T00:02:03;1.00;99.90
698;DHT22;331;48.414;9.938;2023-03-01T00:04:30;1.00;99.90
698;DHT22;331;48.414;9.938;2023-03-01T00:06:57;1.00;99.90
698;DHT22;331;48.414;9.938;2023-03-01T00:09:24;1.00;99.90
698;DHT22;331;48.414;9.938;2023-03-01T00:11:51;0.90;99.90
698;DHT22;331;48.414;9.938;2023-03-01T00:14:20;0.90;99.90
698;DHT22;331;48.414;9.938;2023-03-01T00:16:47;1.00;99.90
698;DHT22;331;48.414;9.938;2023-03-01T00:19:14;1.00;99.90
698;DHT22;331;48.414;9.938;2023-03-01T00:21:48;0.90;99.90
698;DHT22;331;48.414;9.938;2023-03-01T00:24:15;0.90;99.90
698;DHT22;331;48.414;9.938;2023-03-01T00:26:42;1.00;99.90
698;DHT22;331;48.414;9.938;2023-03-01T00:29:12;0.90;99.90
698;DHT22;331;48.414;9.938;2023-03-01T00:31:40;0.90;99.90
698;DHT22;331;48.414;9.938;2023-03-01T00:34:07;0.90;99.90
698;DHT22;331;48.414;9.938;2023-03-01T00:36:36;0.90;99.90
698;DHT22;331;48.414;9.938;2023-03-01T00:39:03;0.90;99.90
698;DHT22;331;48.414;9.938;2023-03-01T00:41:30;0.90;99.90
698;DHT22;331;48.414;9.938;2023-03-01T00:43:59;0.90;99.90
698;DHT22;331;48.414;9.938;2023-03-01T00:46:26;0.90;99.90
698;DHT22;331;48.414;9.938;2023-03-01T00:48:54;0.90;99.90
698;DHT22;331;48.414;9.938;2023-03-01T00:51:22;0.90;99.90
698;DHT22;331;48.414;9.938;2023-03-01T00:53:49;0.90;99.90
698;DHT22;331;48.414;9.938;2023-03-01T00:56:18;0.90;99.90
698;DHT22;331;48.414;9.938;2023-03-01T00:58:45;0.90;99.90
698;DHT22;331;48.414;9.938;2023-03-01T01:01:13;0.90;99.90
698;DHT22;331;48.414;9.938;2023-03-01T01:03:44;0.90;99.90
698;DHT22;331;48.414;9.938;2023-03-01T01:06:16;0.90;99.90
698;DHT22;331;48.414;9.938;2023-03-01T01:08:43;0.90;99.90
698;DHT22;331;48.414;9.938;2023-03-01T01:11:11;0.90;99.90
698;DHT22;331;48.414;9.938;2023-03-01T01:13:38;0.90;99.90
698;DHT22;331;48.414;9.938;2023-03-01T01:16:06;0.90;99.90
698;DHT22;331;48.414;9.938;2023-03-01T01:18:35;0.90;99.90
698;DHT22;331;48.414;9.938;2023-03-01T01:21:06;0.90;99.90
698;DHT22;331;48.414;9.938;2023-03-01T01:23:34;0.90;99.90
698;DHT22;331;48.414;9.938;2023-03-01T01:26:05;0.90;99.90
698;DHT22;331;48.414;9.938;2023-03-01T01:28:32;0.90;99.90
698;DHT22;331;48.414;9.938;2023-03-01T01:30:58;0.90;99.90
698;DHT22;331;48.414;9.938;2023-03-01T01:33:25;0.90;99.90
698;DHT22;331;48.414;9.938;2023-03-01T01:35:52;0.90;99.90
698;DHT22;331;48.414;9.938;2023-03-01T01:38:19;0.90;99.90
698;DHT22;331;48.414;9.938;2023-03-01T01:40:49;0.90;99.90
698;DHT22;331;48.414;9.938;2023-03-01T01:43:18;0.90;99.90
698;DHT22;331;48.414;9.938;2023-03-01T01:45:45;0.90;99.90
698;DHT22;331;48.414;9.938;2023-03-01T01:48:13;0.90;99.90
698;DHT22;331;48.414;9.938;2023-03-01T01:50:42;0.90;99.90
698;DHT22;331;48.414;9.938;2023-03-01T01:53:11;0.90;99.90
698;DHT22;331;48.414;9.938;2023-03-01T01:55:40;0.90;99.90
698;DHT22;331;48.414;9.938;2023-03-01T01:58:10;0.90;99.90
698;DHT22;331;48.414;9.938;2023-03-01T02:00:38;0.90;99.90
698;DHT22;331;48.414;9.938;2023-03-01T02:03:07;0.90;99.90
698;DHT22;331;48.414;9.938;2023-03-01T02:05:36;0.90;99.90
698;DHT22;331;48.414;9.938;2023-03-01T02:08:05;0.90;99.90
698;DHT22;331;48.414;9.938;2023-03-01T02:10:33;0.90;99.90
698;DHT22;331;48.414;9.938;2023-03-01T02:13:01;0.80;99.90
698;DHT22;331;48.414;9.938;2023-03-01T02:15:32;0.80;99.90
698;DHT22;331;48.414;9.938;2023-03-01T02:17:59;0.90;99.90
698;DHT22;331;48.414;9.938;2023-03-01T02:20:30;0.90;99.90
698;DHT22;331;48.414;9.938;2023-03-01T02:22:59;0.90;99.90
698;DHT22;331;48.414;9.938;2023-03-01T02:25:29;0.90;99.90
698;DHT22;331;48.414;9.938;2023-03-01T02:27:58;0.80;99.90
698;DHT22;331;48.414;9.938;2023-03-01T02:30:27;0.80;99.90
698;DHT22;331;48.414;9.938;2023-03-01T02:32:55;0.90;99.90
698;DHT22;331;48.414;9.938;2023-03-01T02:35:28;0.80;99.90
698;DHT22;331;48.414;9.938;2023-03-01T02:37:55;0.80;99.90
698;DHT22;331;48.414;9.938;2023-03-01T02:40:26;0.90;99.90
698;DHT22;331;48.414;9.938;2023-03-01T02:42:55;0.80;99.90
698;DHT22;331;48.414;9.938;2023-03-01T02:45:23;0.80;99.90
698;DHT22;331;48.414;9.938;2023-03-01T02:47:52;0.80;99.90
698;DHT22;331;48.414;9.938;2023-03-01T02:50:22;0.80;99.90
698;DHT22;331;48.414;9.938;2023-03-01T02:52:53;0.80;99.90
698;DHT22;331;48.414;9.938;2023-03-01T02:55:23;0.80;99.90
698;DHT22;331;48.414;9.938;2023-03-01T02:57:50;0.80;99.90
698;DHT22;331;48.414;9.938;2023-03-01T03:00:18;0.80;99.90
698;DHT22;331;48.414;9.938;2023-03-01T03:02:46;0.80;99.90
698;DHT22;331;48.414;9.938;2023-03-01T03:05:19;0.80;99.90
698;DHT22;331;48.414;9.938;2023-03-01T03:07:48;0.80;99.90
698;DHT22;331;48.414;9.938;2023-03-01T03:10:17;0.80;99.90
698;DHT22;331;48.414;9.938;2023-03-01T03:12:47;0.80;99.90
698;DHT22;331;48.414;9.938;2023-03-01T03:15:15;0.90;99.90
698;DHT22;331;48.414;9.938;2023-03-01T03:17:42;0.80;99.90
698;DHT22;331;48.414;9.938;2023-03-01T03:20:09;0.80;99.90
698;DHT22;331;48.414;9.938;2023-03-01T03:22:39;0.80;99.90
698;DHT22;331;48.414;9.938;2023-03-01T03:25:06;0.80;99.90
698;DHT22;331;48.414;9.938;2023-03-01T03:27:35;0.80;99.90
698;DHT22;331;48.414;9.938;2023-03-01T03:30:03;0.80;99.90
698;DHT22;331;48.414;9.938;2023-03-01T03:32:34;0.80;99.90
698;DHT22;331;48.414;9.938;2023-03-01T03:35:01;0.80;99.90
698;DHT22;331;48.414;9.938;2023-03-01T03:37:28;0.80;99.90
698;DHT22;331;48.414;9.938;2023-03-01T03:40:14;0.80;99.90
698;DHT22;331;48.414;9.938;2023-03-01T03:42:41;0.80;99.90
698;DHT22;331;48.414;9.938;2023-03-01T03:45:08;0.80;99.90
698;DHT22;331;48.414;9.938;2023-03-01T03:47:35;0.80;99.90
698;DHT22;331;48.414;9.938;2023-03-01T03:50:02;0.80;99.90
698;DHT22;331;48.414;9.938;2023-03-01T03:52:28;0.80;99.90
698;DHT22;331;48.414;9.938;2023-03-01T03:54:55;0.80;99.90
698;DHT22;331;48.414;9.938;2023-03-01T03:57:23;0.80;99.90
698;DHT22;331;48.414;9.938;2023-03-01T03:59:50;0.80;99.90
698;DHT22;331;48.414;9.938;2023-03-01T04:02:20;0.80;99.90
698;DHT22;331;48.414;9.938;2023-03-01T04:04:48;0.80;99.90
698;DHT22;331;48.414;9.938;2023-03-01T04:07:15;0.80;99.90
698;DHT22;331;48.414;9.938;2023-03-01T04:09:42;0.80;99.90
698;DHT22;331;48.414;9.938;2023-03-01T04:12:09;0.80;99.90
698;DHT22;331;48.414;9.938;2023-03-01T04:14:38;0.80;99.90
698;DHT22;331;48.414;9.938;2023-03-01T04:17:04;0.80;99.90
698;DHT22;331;48.414;9.938;2023-03-01T04:19:32;0.80;99.90
698;DHT22;331;48.414;9.938;2023-03-01T04:22:01;0.80;99.90
698;DHT22;331;48.414;9.938;2023-03-01T04:24:34;0.80;99.90
698;DHT22;331;48.414;9.938;2023-03-01T04:27:01;0.80;99.90
698;DHT22;331;48.414;9.938;2023-03-01T04:29:28;0.80;99.90
698;DHT22;331;48.414;9.938;2023-03-01T04:31:56;0.80;99.90
698;DHT22;331;48.414;9.938;2023-03-01T04:34:24;0.80;99.90
698;DHT22;331;48.414;9.938;2023-03-01T04:36:52;0.80;99.90
698;DHT22;331;48.414;9.938;2023-03-01T04:39:19;0.80;99.90
698;DHT22;331;48.414;9.938;2023-03-01T04:41:45;0.80;99.90
698;DHT22;331;48.414;9.938;2023-03-01T04:44:12;0.80;99.90
698;DHT22;331;48.414;9.938;2023-03-01T04:46:39;0.80;99.90
698;DHT22;331;48.414;9.938;2023-03-01T04:49:07;0.80;99.90
698;DHT22;331;48.414;9.938;2023-03-01T04:51:34;0.80;99.90
698;DHT22;331;48.414;9.938;2023-03-01T04:54:01;0.80;99.90
698;DHT22;331;48.414;9.938;2023-03-01T04:56:28;0.80;99.90
698;DHT22;331;48.414;9.938;2023-03-01T04:58:56;0.80;99.90
698;DHT22;331;48.414;9.938;2023-03-01T05:01:23;0.80;99.90
698;DHT22;331;48.414;9.938;2023-03-01T05:03:51;0.80;99.90
698;DHT22;331;48.414;9.938;2023-03-01T05:06:19;0.80;99.90
698;DHT22;331;48.414;9.938;2023-03-01T05:08:46;0.80;99.90
698;DHT22;331;48.414;9.938;2023-03-01T05:11:13;0.80;99.90
698;DHT22;331;48.414;9.938;2023-03-01T05:13:39;0.80;99.90
698;DHT22;331;48.414;9.938;2023-03-01T05:16:07;0.80;99.90
698;DHT22;331;48.414;9.938;2023-03-01T05:18:36;0.80;99.90
698;DHT22;331;48.414;9.938;2023-03-01T05:21:04;0.80;99.90
698;DHT22;331;48.414;9.938;2023-03-01T05:23:33;0.80;99.90
698;DHT22;331;48.414;9.938;2023-03-01T05:26:00;0.80;99.90
698;DHT22;331;48.414;9.938;2023-03-01T05:28:29;0.80;99.90
698;DHT22;331;48.414;9.938;2023-03-01T05:30:56;0.80;99.90
698;DHT22;331;48.414;9.938;2023-03-01T05:33:23;0.80;99.90
698;DHT22;331;48.414;9.938;2023-03-01T05:35:50;0.80;99.90
698;DHT22;331;48.414;9.938;2023-03-01T05:38:19;0.80;99.90
698;DHT22;331;48.414;9.938;2023-03-01T05:40:47;0.80;99.90
698;DHT22;331;48.414;9.938;2023-03-01T05:43:15;0.80;99.90
698;DHT22;331;48.414;9.938;2023-03-01T05:45:42;0.80;99.90
698;DHT22;331;48.414;9.938;2023-03-01T05:48:10;0.80;99.90
698;DHT22;331;48.414;9.938;2023-03-01T05:50:38;0.80;99.90
698;DHT22;331;48.414;9.938;2023-03-01T05:53:06;0.80;99.90
698;DHT22;331;48.414;9.938;2023-03-01T05:55:34;0.70;99.90
698;DHT22;331;48.414;9.938;2023-03-01T05:58:04;0.80;99.90
698;DHT22;331;48.414;9.938;2023-03-01T06:00:31;0.80;99.90
698;DHT22;331;48.414;9.938;2023-03-01T06:02:59;0.80;99.90
698;DHT22;331;48.414;9.938;2023-03-01T06:05:26;0.80;99.90
698;DHT22;331;48.414;9.938;2023-03-01T06:07:53;0.70;99.90
698;DHT22;331;48.414;9.938;2023-03-01T06:10:21;0.80;99.90
698;DHT22;331;48.414;9.938;2023-03-01T06:12:48;0.70;99.90
698;DHT22;331;48.414;9.938;2023-03-01T06:15:16;0.80;99.90
698;DHT22;331;48.414;9.938;2023-03-01T06:17:44;0.80;99.90
698;DHT22;331;48.414;9.938;2023-03-01T06:20:12;0.70;99.90
698;DHT22;331;48.414;9.938;2023-03-01T06:22:40;0.80;99.90
698;DHT22;331;48.414;9.938;2023-03-01T06:25:07;0.70;99.90
698;DHT22;331;48.414;9.938;2023-03-01T06:27:34;0.70;99.90
698;DHT22;331;48.414;9.938;2023-03-01T06:30:02;0.70;99.90
698;DHT22;331;48.414;9.938;2023-03-01T06:32:30;0.70;99.90
698;DHT22;331;48.414;9.938;2023-03-01T06:34:57;0.70;99.90
698;DHT22;331;48.414;9.938;2023-03-01T06:37:25;0.70;99.90
698;DHT22;331;48.414;9.938;2023-03-01T06:39:52;0.70;99.90
698;DHT22;331;48.414;9.938;2023-03-01T06:42:19;0.70;99.90
698;DHT22;331;48.414;9.938;2023-03-01T06:44:45;0.70;99.90
698;DHT22;331;48.414;9.938;2023-03-01T06:47:12;0.70;99.90
698;DHT22;331;48.414;9.938;2023-03-01T06:49:41;0.70;99.90
698;DHT22;331;48.414;9.938;2023-03-01T06:52:08;0.70;99.90
698;DHT22;331;48.414;9.938;2023-03-01T06:54:35;0.70;99.90
698;DHT22;331;48.414;9.938;2023-03-01T06:57:02;0.70;99.90
698;DHT22;331;48.414;9.938;2023-03-01T06:59:29;0.70;99.90
698;DHT22;331;48.414;9.938;2023-03-01T07:01:56;0.70;99.90
698;DHT22;331;48.414;9.938;2023-03-01T07:04:23;0.70;99.90
698;DHT22;331;48.414;9.938;2023-03-01T07:06:52;0.70;99.90
698;DHT22;331;48.414;9.938;2023-03-01T07:09:20;0.70;99.90
698;DHT22;331;48.414;9.938;2023-03-01T07:11:48;0.60;99.90
698;DHT22;331;48.414;9.938;2023-03-01T07:14:14;0.70;99.90
698;DHT22;331;48.414;9.938;2023-03-01T07:16:41;0.70;99.90
698;DHT22;331;48.414;9.938;2023-03-01T07:19:08;0.70;99.90
698;DHT22;331;48.414;9.938;2023-03-01T07:21:35;0.70;99.90
698;DHT22;331;48.414;9.938;2023-03-01T07:24:06;0.70;99.90
698;DHT22;331;48.414;9.938;2023-03-01T07:26:33;0.70;99.90
698;DHT22;331;48.414;9.938;2023-03-01T07:29:00;0.70;99.90
698;DHT22;331;48.414;9.938;2023-03-01T07:31:27;0.60;99.90
698;DHT22;331;48.414;9.938;2023-03-01T07:33:54;0.70;99.90
698;DHT22;331;48.414;9.938;2023-03-01T07:36:21;0.60;99.90
698;DHT22;331;48.414;9.938;2023-03-01T07:38:48;0.60;99.90
698;DHT22;331;48.414;9.938;2023-03-01T07:41:16;0.60;99.90
698;DHT22;331;48.414;9.938;2023-03-01T07:43:43;0.70;99.90
698;DHT22;331;48.414;9.938;2023-03-01T07:46:10;0.60;99.90
698;DHT22;331;48.414;9.938;2023-03-01T07:48:37;0.60;99.90
698;DHT22;331;48.414;9.938;2023-03-01T07:51:04;0.60;99.90
698;DHT22;331;48.414;9.938;2023-03-01T07:53:31;0.60;99.90
698;DHT22;331;48.414;9.938;2023-03-01T07:56:03;0.60;99.90
698;DHT22;331;48.414;9.938;2023-03-01T07:58:33;0.60;99.90
698;DHT22;331;48.414;9.938;2023-03-01T08:01:00;0.60;99.90
698;DHT22;331;48.414;9.938;2023-03-01T08:03:27;0.60;99.90
698;DHT22;331;48.414;9.938;2023-03-01T08:05:54;0.60;99.90
698;DHT22;331;48.414;9.938;2023-03-01T08:08:21;0.60;99.90
698;DHT22;331;48.414;9.938;2023-03-01T08:10:48;0.60;99.90
698;DHT22;331;48.414;9.938;2023-03-01T08:13:15;0.60;99.90
698;DHT22;331;48.414;9.938;2023-03-01T08:15:49;0.60;99.90
698;DHT22;331;48.414;9.938;2023-03-01T08:18:16;0.60;99.90
698;DHT22;331;48.414;9.938;2023-03-01T08:20:42;0.60;99.90
698;DHT22;331;48.414;9.938;2023-03-01T08:23:09;0.60;99.90
698;DHT22;331;48.414;9.938;2023-03-01T08:25:36;0.60;99.90
698;DHT22;331;48.414;9.938;2023-03-01T08:28:03;0.60;99.90
698;DHT22;331;48.414;9.938;2023-03-01T08:30:30;0.60;99.90
698;DHT22;331;48.414;9.938;2023-03-01T08:32:59;0.60;99.90
698;DHT22;331;48.414;9.938;2023-03-01T08:35:26;0.60;99.90
698;DHT22;331;48.414;9.938;2023-03-01T08:37:53;0.60;99.90
698;DHT22;331;48.414;9.938;2023-03-01T08:40:20;0.60;99.90
698;DHT22;331;48.414;9.938;2023-03-01T08:42:46;0.60;99.90
698;DHT22;331;48.414;9.938;2023-03-01T08:45:13;0.60;99.90
698;DHT22;331;48.414;9.938;2023-03-01T08:47:43;0.60;99.90
698;DHT22;331;48.414;9.938;2023-03-01T08:50:12;0.60;99.90
698;DHT22;331;48.414;9.938;2023-03-01T08:52:39;0.60;99.90
698;DHT22;331;48.414;9.938;2023-03-01T08:55:06;0.60;99.90
698;DHT22;331;48.414;9.938;2023-03-01T08:57:33;0.60;99.90
698;DHT22;331;48.414;9.938;2023-03-01T09:00:00;0.60;99.90
698;DHT22;331;48.414;9.938;2023-03-01T09:02:28;0.60;99.90
698;DHT22;331;48.414;9.938;2023-03-01T09:04:55;0.60;99.90
698;DHT22;331;48.414;9.938;2023-03-01T09:07:23;0.60;99.90
698;DHT22;331;48.414;9.938;2023-03-01T09:09:53;0.60;99.90
698;DHT22;331;48.414;9.938;2023-03-01T09:12:20;0.60;99.90
698;DHT22;331;48.414;9.938;2023-03-01T09:14:47;0.60;99.90
698;DHT22;331;48.414;9.938;2023-03-01T09:17:14;0.60;99.90
698;DHT22;331;48.414;9.938;2023-03-01T09:19:43;0.60;99.90
698;DHT22;331;48.414;9.938;2023-03-01T09:22:10;0.60;99.90
698;DHT22;331;48.414;9.938;2023-03-01T09:24:38;0.60;99.90
698;DHT22;331;48.414;9.938;2023-03-01T09:27:06;0.60;99.90
698;DHT22;331;48.414;9.938;2023-03-01T09:29:34;0.60;99.90
698;DHT22;331;48.414;9.938;2023-03-01T09:32:01;0.70;99.90
698;DHT22;331;48.414;9.938;2023-03-01T09:34:28;0.60;99.90
698;DHT22;331;48.414;9.938;2023-03-01T09:36:57;0.70;99.90
698;DHT22;331;48.414;9.938;2023-03-01T09:39:23;0.70;99.90
698;DHT22;331;48.414;9.938;2023-03-01T09:41:55;0.70;99.90
698;DHT22;331;48.414;9.938;2023-03-01T09:44:27;0.70;99.90
698;DHT22;331;48.414;9.938;2023-03-01T09:46:56;0.70;99.90
698;DHT22;331;48.414;9.938;2023-03-01T09:49:24;0.70;99.90
698;DHT22;331;48.414;9.938;2023-03-01T09:51:55;0.70;99.90
698;DHT22;331;48.414;9.938;2023-03-01T09:54:22;0.70;99.90
698;DHT22;331;48.414;9.938;2023-03-01T09:56:56;0.70;99.90
698;DHT22;331;48.414;9.938;2023-03-01T09:59:25;0.70;99.90
698;DHT22;331;48.414;9.938;2023-03-01T10:01:58;0.70;99.90
698;DHT22;331;48.414;9.938;2023-03-01T10:04:33;0.70;99.90
698;DHT22;331;48.414;9.938;2023-03-01T10:07:07;0.80;99.90
698;DHT22;331;48.414;9.938;2023-03-01T10:09:38;0.80;99.90
698;DHT22;331;48.414;9.938;2023-03-01T10:12:09;0.80;99.90
698;DHT22;331;48.414;9.938;2023-03-01T10:14:38;0.80;99.90
698;DHT22;331;48.414;9.938;2023-03-01T10:17:08;0.80;99.90
698;DHT22;331;48.414;9.938;2023-03-01T10:19:39;0.80;99.90
698;DHT22;331;48.414;9.938;2023-03-01T10:22:10;0.80;99.90
698;DHT22;331;48.414;9.938;2023-03-01T10:24:39;0.80;99.90
698;DHT22;331;48.414;9.938;2023-03-01T10:27:09;0.80;99.90
698;DHT22;331;48.414;9.938;2023-03-01T10:29:39;0.80;99.90
698;DHT22;331;48.414;9.938;2023-03-01T10:32:08;0.90;99.90
698;DHT22;331;48.414;9.938;2023-03-01T10:34:36;0.90;99.90
698;DHT22;331;48.414;9.938;2023-03-01T10:37:08;0.80;99.90
698;DHT22;331;48.414;9.938;2023-03-01T10:39:36;0.90;99.90
698;DHT22;331;48.414;9.938;2023-03-01T10:42:03;0.90;99.90
698;DHT22;331;48.414;9.938;2023-03-01T10:44:40;0.90;99.90
698;DHT22;331;48.414;9.938;2023-03-01T10:47:12;0.90;99.90
698;DHT22;331;48.414;9.938;2023-03-01T10:49:42;0.90;99.90
698;DHT22;331;48.414;9.938;2023-03-01T10:52:18;0.90;99.90
698;DHT22;331;48.414;9.938;2023-03-01T10:54:50;0.90;99.90
698;DHT22;331;48.414;9.938;2023-03-01T10:57:24;1.00;99.90
698;DHT22;331;48.414;9.938;2023-03-01T11:00:03;1.00;99.90
698;DHT22;331;48.414;9.938;2023-03-01T11:02:41;1.00;99.90
698;DHT22;331;48.414;9.938;2023-03-01T11:05:15;1.00;99.90
698;DHT22;331;48.414;9.938;2023-03-01T11:07:46;1.00;99.90
698;DHT22;331;48.414;9.938;2023-03-01T11:10:15;1.00;99.90
698;DHT22;331;48.414;9.938;2023-03-01T11:12:43;1.00;99.90
698;DHT22;331;48.414;9.938;2023-03-01T11:15:19;1.00;99.90
698;DHT22;331;48.414;9.938;2023-03-01T11:17:46;1.10;99.90
698;DHT22;331;48.414;9.938;2023-03-01T11:20:15;1.10;99.90
698;DHT22;331;48.414;9.938;2023-03-01T11:22:45;1.10;99.90
698;DHT22;331;48.414;9.938;2023-03-01T11:25:13;1.10;99.90
698;DHT22;331;48.414;9.938;2023-03-01T11:27:42;1.10;99.90
698;DHT22;331;48.414;9.938;2023-03-01T11:30:13;1.10;99.90
698;DHT22;331;48.414;9.938;2023-03-01T11:32:45;1.10;99.90
698;DHT22;331;48.414;9.938;2023-03-01T11:35:15;1.10;99.90
698;DHT22;331;48.414;9.938;2023-03-01T11:37:50;1.10;99.90
698;DHT22;331;48.414;9.938;2023-03-01T11:40:21;1.20;99.90
698;DHT22;331;48.414;9.938;2023-03-01T11:42:53;1.20;99.90
698;DHT22;331;48.414;9.938;2023-03-01T11:45:22;1.20;99.90
698;DHT22;331;48.414;9.938;2023-03-01T11:47:58;1.20;99.90
698;DHT22;331;48.414;9.938;2023-03-01T11:50:28;1.20;99.90
698;DHT22;331;48.414;9.938;2023-03-01T11:53:00;1.20;99.90
698;DHT22;331;48.414;9.938;2023-03-01T11:55:34;1.20;99.90
698;DHT22;331;48.414;9.938;2023-03-01T11:58:14;1.20;99.90
698;DHT22;331;48.414;9.938;2023-03-01T12:03:36;1.30;99.90
698;DHT22;331;48.414;9.938;2023-03-01T12:06:09;1.30;99.90
698;DHT22;331;48.414;9.938;2023-03-01T12:08:40;1.30;99.90
698;DHT22;331;48.414;9.938;2023-03-01T12:11:11;1.40;99.90
698;DHT22;331;48.414;9.938;2023-03-01T12:13:47;1.30;99.90
698;DHT22;331;48.414;9.938;2023-03-01T12:16:20;1.40;99.90
698;DHT22;331;48.414;9.938;2023-03-01T12:21:44;1.40;99.90
698;DHT22;331;48.414;9.938;2023-03-01T12:24:22;1.40;99.90
698;DHT22;331;48.414;9.938;2023-03-01T12:26:54;1.40;99.90
698;DHT22;331;48.414;9.938;2023-03-01T12:29:24;1.40;99.90
698;DHT22;331;48.414;9.938;2023-03-01T12:32:04;1.50;99.90
698;DHT22;331;48.414;9.938;2023-03-01T12:34:38;1.50;99.90
698;DHT22;331;48.414;9.938;2023-03-01T12:40:01;1.50;99.90
698;DHT22;331;48.414;9.938;2023-03-01T12:42:31;1.50;99.90
698;DHT22;331;48.414;9.938;2023-03-01T12:45:04;1.50;99.90
698;DHT22;331;48.414;9.938;2023-03-01T12:47:39;1.60;99.90
698;DHT22;331;48.414;9.938;2023-03-01T12:50:11;1.60;99.90
698;DHT22;331;48.414;9.938;2023-03-01T12:52:41;1.60;99.90
698;DHT22;331;48.414;9.938;2023-03-01T12:55:18;1.70;99.90
698;DHT22;331;48.414;9.938;2023-03-01T12:57:46;1.70;99.90
698;DHT22;331;48.414;9.938;2023-03-01T13:00:20;1.70;99.90
698;DHT22;331;48.414;9.938;2023-03-01T13:02:49;1.80;99.90
698;DHT22;331;48.414;9.938;2023-03-01T13:05:20;1.80;99.90
698;DHT22;331;48.414;9.938;2023-03-01T13:07:51;1.80;99.90
698;DHT22;331;48.414;9.938;2023-03-01T13:10:23;1.80;99.90
698;DHT22;331;48.414;9.938;2023-03-01T13:13:02;1.80;99.90
698;DHT22;331;48.414;9.938;2023-03-01T13:15:33;1.80;99.90
698;DHT22;331;48.414;9.938;2023-03-01T13:18:00;1.80;99.90
698;DHT22;331;48.414;9.938;2023-03-01T13:20:30;1.80;99.90
698;DHT22;331;48.414;9.938;2023-03-01T13:34:12;1.90;99.90
698;DHT22;331;48.414;9.938;2023-03-01T13:37:09;2.00;99.90
698;DHT22;331;48.414;9.938;2023-03-01T13:39:38;2.00;99.90
698;DHT22;331;48.414;9.938;2023-03-01T13:42:27;2.00;99.90
698;DHT22;331;48.414;9.938;2023-03-01T13:44:56;2.10;99.90
698;DHT22;331;48.414;9.938;2023-03-01T13:47:23;2.10;99.90
698;DHT22;331;48.414;9.938;2023-03-01T13:49:52;2.10;99.90
698;DHT22;331;48.414;9.938;2023-03-01T13:52:36;2.20;99.90
698;DHT22;331;48.414;9.938;2023-03-01T13:55:06;2.20;99.90
698;DHT22;331;48.414;9.938;2023-03-01T13:57:43;2.20;99.90
698;DHT22;331;48.414;9.938;2023-03-01T14:00:24;2.30;99.90
698;DHT22;331;48.414;9.938;2023-03-01T14:02:59;2.30;99.90
698;DHT22;331;48.414;9.938;2023-03-01T14:05:27;2.30;99.90
698;DHT22;331;48.414;9.938;2023-03-01T14:07:54;2.30;99.90
698;DHT22;331;48.414;9.938;2023-03-01T14:10:21;2.40;99.90
698;DHT22;331;48.414;9.938;2023-03-01T14:12:48;2.50;99.90
698;DHT22;331;48.414;9.938;2023-03-01T14:15:18;2.40;99.90
698;DHT22;331;48.414;9.938;2023-03-01T14:17:52;2.40;99.90
698;DHT22;331;48.414;9.938;2023-03-01T14:20:21;2.50;99.90
698;DHT22;331;48.414;9.938;2023-03-01T14:22:51;2.50;99.90
698;DHT22;331;48.414;9.938;2023-03-01T14:25:21;2.50;99.90
698;DHT22;331;48.414;9.938;2023-03-01T14:27:54;2.60;99.90
698;DHT22;331;48.414;9.938;2023-03-01T14:30:21;2.60;99.90
698;DHT22;331;48.414;9.938;2023-03-01T14:32:53;2.60;99.90
698;DHT22;331;48.414;9.938;2023-03-01T14:35:21;2.60;99.90
698;DHT22;331;48.414;9.938;2023-03-01T14:37:48;2.70;99.90
698;DHT22;331;48.414;9.938;2023-03-01T14:40:22;2.70;99.90
698;DHT22;331;48.414;9.938;2023-03-01T14:42:49;2.70;99.90
698;DHT22;331;48.414;9.938;2023-03-01T14:45:16;2.80;99.90
698;DHT22;331;48.414;9.938;2023-03-01T14:47:45;2.80;99.90
698;DHT22;331;48.414;9.938;2023-03-01T14:50:15;2.80;99.90
698;DHT22;331;48.414;9.938;2023-03-01T14:52:46;2.80;99.90
698;DHT22;331;48.414;9.938;2023-03-01T14:55:15;2.80;99.90
698;DHT22;331;48.414;9.938;2023-03-01T14:57:47;2.80;99.90
698;DHT22;331;48.414;9.938;2023-03-01T15:00:15;2.80;99.90
698;DHT22;331;48.414;9.938;2023-03-01T15:05:13;2.90;99.90
698;DHT22;331;48.414;9.938;2023-03-01T15:07:40;2.90;99.90
698;DHT22;331;48.414;9.938;2023-03-01T15:10:18;2.90;99.90
698;DHT22;331;48.414;9.938;2023-03-01T15:12:47;2.90;99.90
698;DHT22;331;48.414;9.938;2023-03-01T15:17:56;2.90;99.90
698;DHT22;331;48.414;9.938;2023-03-01T15:20:25;3.00;99.90
698;DHT22;331;48.414;9.938;2023-03-01T15:22:54;3.00;99.90
698;DHT22;331;48.414;9.938;2023-03-01T15:25:22;3.00;99.90
698;DHT22;331;48.414;9.938;2023-03-01T15:27:52;3.10;99.90
698;DHT22;331;48.414;9.938;2023-03-01T15:30:20;3.00;99.90
698;DHT22;331;48.414;9.938;2023-03-01T15:32:48;3.10;99.90
698;DHT22;331;48.414;9.938;2023-03-01T15:37:56;3.10;99.90
698;DHT22;331;48.414;9.938;2023-03-01T15:42:54;3.10;99.90
698;DHT22;331;48.414;9.938;2023-03-01T15:45:22;3.10;99.90
698;DHT22;331;48.414;9.938;2023-03-01T15:47:51;3.10;99.90
698;DHT22;331;48.414;9.938;2023-03-01T15:50:19;3.10;99.90
698;DHT22;331;48.414;9.938;2023-03-01T15:52:49;3.20;99.90
698;DHT22;331;48.414;9.938;2023-03-01T15:55:17;3.10;99.90
698;DHT22;331;48.414;9.938;2023-03-01T15:57:44;3.10;99.90
698;DHT22;331;48.414;9.938;2023-03-01T16:00:13;3.20;99.90
698;DHT22;331;48.414;9.938;2023-03-01T16:02:41;3.20;99.90
698;DHT22;331;48.414;9.938;2023-03-01T16:05:10;3.20;99.90
698;DHT22;331;48.414;9.938;2023-03-01T16:07:40;3.20;99.90
698;DHT22;331;48.414;9.938;2023-03-01T16:10:07;3.20;99.90
698;DHT22;331;48.414;9.938;2023-03-01T16:12:37;3.20;99.90
698;DHT22;331;48.414;9.938;2023-03-01T16:15:08;3.20;99.90
698;DHT22;331;48.414;9.938;2023-03-01T16:17:40;3.20;99.90
698;DHT22;331;48.414;9.938;2023-03-01T16:20:08;3.20;99.90
698;DHT22;331;48.414;9.938;2023-03-01T16:22:35;3.30;99.90
698;DHT22;331;48.414;9.938;2023-03-01T16:25:02;3.30;99.90
698;DHT22;331;48.414;9.938;2023-03-01T16:27:32;3.30;99.90
698;DHT22;331;48.414;9.938;2023-03-01T16:29:58;3.30;99.90
698;DHT22;331;48.414;9.938;2023-03-01T16:32:25;3.30;99.90
698;DHT22;331;48.414;9.938;2023-03-01T16:34:54;3.30;99.90
698;DHT22;331;48.414;9.938;2023-03-01T16:37:21;3.30;99.90
698;DHT22;331;48.414;9.938;2023-03-01T16:39:51;3.30;99.90
698;DHT22;331;48.414;9.938;2023-03-01T16:42:18;3.30;99.90
698;DHT22;331;48.414;9.938;2023-03-01T16:44:48;3.30;99.90
698;DHT22;331;48.414;9.938;2023-03-01T16:47:15;3.30;99.90
698;DHT22;331;48.414;9.938;2023-03-01T16:49:42;3.30;99.90
698;DHT22;331;48.414;9.938;2023-03-01T16:52:10;3.30;99.90
698;DHT22;331;48.414;9.938;2023-03-01T16:54:37;3.30;99.90
698;DHT22;331;48.414;9.938;2023-03-01T16:57:04;3.30;99.90
698;DHT22;331;48.414;9.938;2023-03-01T16:59:31;3.30;99.90
698;DHT22;331;48.414;9.938;2023-03-01T17:01:58;3.40;99.90
698;DHT22;331;48.414;9.938;2023-03-01T17:04:25;3.40;99.90
698;DHT22;331;48.414;9.938;2023-03-01T17:06:51;3.30;99.90
698;DHT22;331;48.414;9.938;2023-03-01T17:09:20;3.30;99.90
698;DHT22;331;48.414;9.938;2023-03-01T17:11:48;3.30;99.90
698;DHT22;331;48.414;9.938;2023-03-01T17:14:15;3.30;99.90
698;DHT22;331;48.414;9.938;2023-03-01T17:16:42;3.40;99.90
698;DHT22;331;48.414;9.938;2023-03-01T17:19:10;3.40;99.90
698;DHT22;331;48.414;9.938;2023-03-01T17:21:39;3.30;99.90
698;DHT22;331;48.414;9.938;2023-03-01T17:24:05;3.40;99.90
698;DHT22;331;48.414;9.938;2023-03-01T17:26:34;3.30;99.90
698;DHT22;331;48.414;9.938;2023-03-01T17:29:01;3.30;99.90
698;DHT22;331;48.414;9.938;2023-03-01T17:31:29;3.40;99.90
698;DHT22;331;48.414;9.938;2023-03-01T17:33:56;3.30;99.90